Time;durP1;ratioP1;P1;durP2;ratioP2;P2;SDS_P1;SDS_P2;PMS_P1;PMS_P2;Temp;Humidity;BMP_temperature;BMP_pressure;BME280_temperature;BME280_humidity;BME280_pressure;Samples;Min_cycle;Max_cycle;Signal;HPM_P1;HPM_P2
2023/09/26 00:07:27;;;;;;;7.00;5.97;;;14.00;99.90;;;;;;5877206;24;20656;-85
2023/09/26 01:18:42;;;;;;;7.07;6.33;;;13.60;99.90;;;;;;5755924;24;20264;-86
2023/09/26 01:59:14;;;;;;;10.90;6.30;;;13.40;99.90;;;;;;6077513;23;20189;-86
2023/09/26 02:29:09;;;;;;;7.33;6.73;;;12.90;99.90;;;;;;5951368;23;20409;-86
2023/09/26 02:49:55;;;;;;;7.50;6.70;;;12.90;99.90;;;;;;5839119;24;20174;-88
2023/09/26 03:15:24;;;;;;;8.33;7.27;;;12.70;99.90;;;;;;5774418;24;20421;-85
2023/09/26 03:45:36;;;;;;;9.83;8.30;;;12.70;99.90;;;;;;5749095;24;20705;-88
2023/09/26 04:20:38;;;;;;;10.53;9.10;;;12.40;99.90;;;;;;5755490;24;20532;-86
2023/09/26 04:41:35;;;;;;;12.30;9.00;;;13.10;99.90;;;;;;5732906;24;20194;-86
2023/09/26 05:01:52;;;;;;;8.60;7.70;;;13.90;99.90;;;;;;5783900;24;20356;-87
2023/09/26 05:36:56;;;;;;;10.13;7.33;;;14.60;99.90;;;;;;5662638;24;20195;-88
2023/09/26 06:07:33;;;;;;;7.20;6.50;;;15.10;99.90;;;;;;5811038;24;20210;-87
2023/09/26 06:28:05;;;;;;;8.37;6.50;;;15.50;99.90;;;;;;5799739;24;20200;-87
2023/09/26 06:48:21;;;;;;;10.00;7.07;;;16.00;99.90;;;;;;5774292;24;20260;-85
2023/09/26 07:28:55;;;;;;;11.47;7.33;;;17.20;99.90;;;;;;5766013;24;20233;-87
2023/09/26 07:54:10;;;;;;;13.17;9.60;;;17.70;99.90;;;;;;5769058;24;20189;-86
2023/09/26 08:09:37;;;;;;;15.47;9.73;;;17.80;99.90;;;;;;5867333;23;20310;-89
2023/09/26 08:34:58;;;;;;;14.50;10.40;;;18.70;99.90;;;;;;5891264;24;20839;-85
2023/09/26 09:20:31;;;;;;;19.80;14.90;;;19.30;99.90;;;;;;6055332;23;20246;-86
2023/09/26 09:50:21;;;;;;;20.13;14.82;;;19.60;99.90;;;;;;5830814;24;20804;-87
2023/09/26 10:16:05;;;;;;;20.70;15.38;;;20.20;99.90;;;;;;5885934;23;20192;-90
2023/09/26 10:36:30;;;;;;;22.08;15.98;;;20.70;99.90;;;;;;5809883;24;20456;-90
2023/09/26 11:06:31;;;;;;;17.58;15.30;;;19.80;99.90;;;;;;5930257;23;20255;-89
2023/09/26 11:57:14;;;;;;;16.65;14.40;;;20.40;99.90;;;;;;6123945;23;22185;-90
2023/09/26 12:27:35;;;;;;;19.88;13.75;;;20.90;99.90;;;;;;6043913;23;20159;-87
2023/09/26 12:53:10;;;;;;;14.68;13.18;;;21.60;99.90;;;;;;5812986;24;20204;-88
2023/09/26 13:18:18;;;;;;;13.05;11.75;;;22.30;96.30;;;;;;5669496;25;21036;-87
2023/09/26 13:38:46;;;;;;;13.82;12.32;;;22.60;94.00;;;;;;5665817;25;20454;-87
2023/09/26 13:59:02;;;;;;;13.82;12.40;;;23.10;93.00;;;;;;5677264;25;20409;-85
2023/09/26 14:19:08;;;;;;;15.63;13.25;;;22.60;96.00;;;;;;5968141;23;20285;-88
2023/09/26 14:39:56;;;;;;;17.42;13.30;;;22.30;98.00;;;;;;5881127;24;20558;-88
2023/09/26 14:59:59;;;;;;;16.63;14.77;;;22.00;97.70;;;;;;5893978;24;20836;-84
2023/09/26 15:30:35;;;;;;;20.25;15.07;;;21.70;98.60;;;;;;5985992;23;20242;-88
2023/09/26 15:50:30;;;;;;;19.48;15.80;;;21.20;99.90;;;;;;5890342;24;20345;-87
2023/09/26 16:16:20;;;;;;;21.60;17.30;;;19.80;99.90;;;;;;5893417;24;20330;-85
2023/09/26 16:36:37;;;;;;;26.17;18.93;;;18.90;99.90;;;;;;5903281;24;20506;-87
2023/09/26 16:56:44;;;;;;;26.87;20.20;;;18.30;99.90;;;;;;5791829;24;20187;-87
2023/09/26 17:22:18;;;;;;;33.27;23.73;;;17.10;99.90;;;;;;5817291;24;20251;-87
2023/09/26 17:47:22;;;;;;;38.03;26.27;;;16.60;99.90;;;;;;5714559;24;20227;-87
2023/09/26 18:12:57;;;;;;;41.00;28.80;;;16.00;99.90;;;;;;5972129;24;20238;-85
2023/09/26 18:38:29;;;;;;;53.97;32.57;;;15.60;99.90;;;;;;5841238;24;20189;-87
2023/09/26 18:42:57;;;;;;;50.77;34.17;;;15.50;99.90;;;;;;5815286;24;20425;-86
2023/09/26 19:13:17;;;;;;;51.43;34.60;;;15.20;99.90;;;;;;5969881;24;20212;-88
2023/09/26 20:04:50;;;;;;;62.50;39.47;;;14.70;99.90;;;;;;5988788;23;20161;-86
2023/09/26 20:09:02;;;;;;;63.60;39.73;;;14.70;99.90;;;;;;5868425;24;20231;-87
2023/09/26 20:29:20;;;;;;;67.07;41.57;;;14.40;99.90;;;;;;5717131;24;20750;-87
2023/09/26 21:10:34;;;;;;;71.17;42.17;;;14.40;99.90;;;;;;5812059;24;20190;-87
2023/09/26 21:35:49;;;;;;;69.27;44.00;;;14.20;99.90;;;;;;5953098;23;20259;-85
2023/09/26 23:57:38;;;;;;;75.87;47.97;;;13.40;99.90;;;;;;5992812;23;20199;-85
